KPMH/PMH METAR and TAF weather

Enter ICAO airport designator
Station Type Date Time Source
KPMH METAR 2020/11/27 02:35 UTC NOAA

KPMH 270235Z AUTO 24004KT 10SM OVC024 10/08 A3013 RMK AO2 T01020078


Station Type Date Time Source
KPMH Decoded METAR 2020/11/27 02:35 UTC NOAA

Station name not available
Nov 26, 2020 - 09:35 PM EST / 2020.11.27 0235 UTC
Wind: from the WSW (240 degrees) at 5 MPH (4 KT):0
Visibility: 10 mile(s):0
Sky conditions: overcast
Temperature: 50.4 F (10.2 C)
Dew Point: 46.0 F (7.8 C)
Relative Humidity: 85%
Pressure (altimeter): 30.13 in. Hg (1020 hPa)
ob: KPMH 270235Z AUTO 24004KT 10SM OVC024 10/08 A3013 RMK AO2 T01020078
cycle: 2

Station Type Date Time Source
KPMH TAF UTC NOAA

Error!

Example: see airport list